Terminal Aerodrome Forecast
Issued by NWS Shreveport, LA

Home | Current Version | Previous Version | Text Only | Print | Product List | Glossary On
Versions: 1 2 3 4 5 6 7 8 9 10 11 12
000
FTUS44 KSHV 221100 RRA
TAFELD
TAF
KELD 221143Z 2212/2312 17008KT P6SM SKC
      TEMPO 2212/2213 4SM BR
     FM221500 22006KT P6SM FEW035
     FM230100 VRB03KT P6SM SKC=

USA.gov is the U.S. government's official web portal to all federal, state and local government web resources and services.